sensor_id;sensor_type;location;lat;lon;timestamp;P1;durP1;ratioP1;P2;durP2;ratioP2
2934;SDS011;2462;51.456;7.248;2023-08-21T00:02:25;2.90;;;2.40;;
2934;SDS011;2462;51.456;7.248;2023-08-21T00:04:53;3.40;;;2.40;;
2934;SDS011;2462;51.456;7.248;2023-08-21T00:07:19;2.87;;;2.50;;
2934;SDS011;2462;51.456;7.248;2023-08-21T00:09:45;2.30;;;2.10;;
2934;SDS011;2462;51.456;7.248;2023-08-21T00:12:11;2.73;;;2.53;;
2934;SDS011;2462;51.456;7.248;2023-08-21T00:14:37;2.50;;;2.20;;
2934;SDS011;2462;51.456;7.248;2023-08-21T00:17:03;2.50;;;2.30;;
2934;SDS011;2462;51.456;7.248;2023-08-21T00:19:29;4.37;;;2.57;;
2934;SDS011;2462;51.456;7.248;2023-08-21T00:21:55;4.33;;;2.50;;
2934;SDS011;2462;51.456;7.248;2023-08-21T00:24:21;3.07;;;2.60;;
2934;SDS011;2462;51.456;7.248;2023-08-21T00:26:47;2.33;;;2.13;;
2934;SDS011;2462;51.456;7.248;2023-08-21T00:29:13;3.30;;;3.00;;
2934;SDS011;2462;51.456;7.248;2023-08-21T00:31:39;2.77;;;2.40;;
2934;SDS011;2462;51.456;7.248;2023-08-21T00:34:05;2.50;;;2.30;;
2934;SDS011;2462;51.456;7.248;2023-08-21T00:36:31;2.50;;;2.30;;
2934;SDS011;2462;51.456;7.248;2023-08-21T00:38:57;3.07;;;2.53;;
2934;SDS011;2462;51.456;7.248;2023-08-21T00:41:23;3.13;;;2.87;;
2934;SDS011;2462;51.456;7.248;2023-08-21T00:43:49;2.67;;;2.03;;
2934;SDS011;2462;51.456;7.248;2023-08-21T00:46:15;2.27;;;2.07;;
2934;SDS011;2462;51.456;7.248;2023-08-21T00:48:42;2.77;;;2.20;;
2934;SDS011;2462;51.456;7.248;2023-08-21T00:51:09;2.40;;;2.13;;
2934;SDS011;2462;51.456;7.248;2023-08-21T00:53:35;2.27;;;2.07;;
2934;SDS011;2462;51.456;7.248;2023-08-21T00:56:01;2.80;;;2.40;;
2934;SDS011;2462;51.456;7.248;2023-08-21T00:58:28;2.73;;;2.10;;
2934;SDS011;2462;51.456;7.248;2023-08-21T01:00:54;2.70;;;2.47;;
2934;SDS011;2462;51.456;7.248;2023-08-21T01:03:20;3.47;;;2.50;;
2934;SDS011;2462;51.456;7.248;2023-08-21T01:05:46;3.03;;;2.73;;
2934;SDS011;2462;51.456;7.248;2023-08-21T01:08:24;4.13;;;2.23;;
2934;SDS011;2462;51.456;7.248;2023-08-21T01:13:29;2.80;;;2.30;;
2934;SDS011;2462;51.456;7.248;2023-08-21T01:16:00;2.57;;;2.10;;
2934;SDS011;2462;51.456;7.248;2023-08-21T01:18:28;3.40;;;2.17;;
2934;SDS011;2462;51.456;7.248;2023-08-21T01:20:54;1.97;;;1.80;;
2934;SDS011;2462;51.456;7.248;2023-08-21T01:23:54;2.10;;;1.90;;
2934;SDS011;2462;51.456;7.248;2023-08-21T01:26:13;2.03;;;1.53;;
2934;SDS011;2462;51.456;7.248;2023-08-21T01:28:39;3.73;;;2.53;;
2934;SDS011;2462;51.456;7.248;2023-08-21T01:33:32;2.60;;;2.40;;
2934;SDS011;2462;51.456;7.248;2023-08-21T01:35:59;2.37;;;2.13;;
2934;SDS011;2462;51.456;7.248;2023-08-21T01:38:25;3.40;;;2.00;;
2934;SDS011;2462;51.456;7.248;2023-08-21T01:40:53;2.30;;;1.63;;
2934;SDS011;2462;51.456;7.248;2023-08-21T01:43:19;2.20;;;1.90;;
2934;SDS011;2462;51.456;7.248;2023-08-21T01:45:45;3.60;;;2.00;;
2934;SDS011;2462;51.456;7.248;2023-08-21T01:48:11;3.17;;;2.20;;
2934;SDS011;2462;51.456;7.248;2023-08-21T01:50:37;3.07;;;2.10;;
2934;SDS011;2462;51.456;7.248;2023-08-21T01:53:03;1.77;;;1.63;;
2934;SDS011;2462;51.456;7.248;2023-08-21T01:55:29;3.10;;;2.03;;
2934;SDS011;2462;51.456;7.248;2023-08-21T01:57:55;2.20;;;1.90;;
2934;SDS011;2462;51.456;7.248;2023-08-21T02:00:21;2.13;;;1.70;;
2934;SDS011;2462;51.456;7.248;2023-08-21T02:02:47;3.53;;;1.80;;
2934;SDS011;2462;51.456;7.248;2023-08-21T02:05:13;2.93;;;1.80;;
2934;SDS011;2462;51.456;7.248;2023-08-21T02:07:39;3.80;;;2.07;;
2934;SDS011;2462;51.456;7.248;2023-08-21T02:10:05;2.10;;;1.90;;
2934;SDS011;2462;51.456;7.248;2023-08-21T02:12:32;2.23;;;1.87;;
2934;SDS011;2462;51.456;7.248;2023-08-21T02:14:58;2.20;;;1.97;;
2934;SDS011;2462;51.456;7.248;2023-08-21T02:17:26;2.13;;;1.80;;
2934;SDS011;2462;51.456;7.248;2023-08-21T02:19:52;1.93;;;1.70;;
2934;SDS011;2462;51.456;7.248;2023-08-21T02:22:18;3.80;;;2.00;;
2934;SDS011;2462;51.456;7.248;2023-08-21T02:24:44;2.00;;;1.80;;
2934;SDS011;2462;51.456;7.248;2023-08-21T02:27:10;1.60;;;1.50;;
2934;SDS011;2462;51.456;7.248;2023-08-21T02:29:36;2.87;;;2.00;;
2934;SDS011;2462;51.456;7.248;2023-08-21T02:32:02;2.70;;;1.80;;
2934;SDS011;2462;51.456;7.248;2023-08-21T02:34:28;2.50;;;1.80;;
2934;SDS011;2462;51.456;7.248;2023-08-21T02:36:54;2.90;;;2.20;;
2934;SDS011;2462;51.456;7.248;2023-08-21T02:39:20;2.53;;;1.83;;
2934;SDS011;2462;51.456;7.248;2023-08-21T02:41:46;2.53;;;1.97;;
2934;SDS011;2462;51.456;7.248;2023-08-21T02:44:12;2.00;;;1.80;;
2934;SDS011;2462;51.456;7.248;2023-08-21T02:46:38;2.50;;;1.67;;
2934;SDS011;2462;51.456;7.248;2023-08-21T02:49:04;1.93;;;1.67;;
2934;SDS011;2462;51.456;7.248;2023-08-21T02:51:30;3.40;;;1.70;;
2934;SDS011;2462;51.456;7.248;2023-08-21T02:53:56;1.53;;;1.30;;
2934;SDS011;2462;51.456;7.248;2023-08-21T02:56:22;2.07;;;1.73;;
2934;SDS011;2462;51.456;7.248;2023-08-21T02:58:48;2.00;;;1.80;;
2934;SDS011;2462;51.456;7.248;2023-08-21T03:01:14;1.70;;;1.60;;
2934;SDS011;2462;51.456;7.248;2023-08-21T03:03:40;2.60;;;2.03;;
2934;SDS011;2462;51.456;7.248;2023-08-21T03:06:06;2.93;;;1.60;;
2934;SDS011;2462;51.456;7.248;2023-08-21T03:08:32;2.43;;;2.10;;
2934;SDS011;2462;51.456;7.248;2023-08-21T03:10:58;3.33;;;1.70;;
2934;SDS011;2462;51.456;7.248;2023-08-21T03:13:24;3.30;;;1.70;;
2934;SDS011;2462;51.456;7.248;2023-08-21T03:15:50;2.03;;;1.60;;
2934;SDS011;2462;51.456;7.248;2023-08-21T03:18:16;2.30;;;1.70;;
2934;SDS011;2462;51.456;7.248;2023-08-21T03:20:45;2.43;;;1.70;;
2934;SDS011;2462;51.456;7.248;2023-08-21T03:23:11;1.73;;;1.40;;
2934;SDS011;2462;51.456;7.248;2023-08-21T03:25:37;1.70;;;1.60;;
2934;SDS011;2462;51.456;7.248;2023-08-21T03:28:03;2.77;;;1.50;;
2934;SDS011;2462;51.456;7.248;2023-08-21T03:30:30;3.23;;;1.80;;
2934;SDS011;2462;51.456;7.248;2023-08-21T03:32:55;2.33;;;1.90;;
2934;SDS011;2462;51.456;7.248;2023-08-21T03:35:21;2.27;;;1.60;;
2934;SDS011;2462;51.456;7.248;2023-08-21T03:37:47;1.60;;;1.43;;
2934;SDS011;2462;51.456;7.248;2023-08-21T03:40:13;2.40;;;1.80;;
2934;SDS011;2462;51.456;7.248;2023-08-21T03:42:39;3.30;;;1.53;;
2934;SDS011;2462;51.456;7.248;2023-08-21T03:45:06;2.40;;;1.57;;
2934;SDS011;2462;51.456;7.248;2023-08-21T03:47:32;2.07;;;1.77;;
2934;SDS011;2462;51.456;7.248;2023-08-21T03:49:58;4.53;;;2.10;;
2934;SDS011;2462;51.456;7.248;2023-08-21T03:52:24;3.77;;;1.83;;
2934;SDS011;2462;51.456;7.248;2023-08-21T03:54:50;2.07;;;1.87;;
2934;SDS011;2462;51.456;7.248;2023-08-21T03:57:16;2.80;;;1.37;;
2934;SDS011;2462;51.456;7.248;2023-08-21T03:59:42;1.70;;;1.60;;
2934;SDS011;2462;51.456;7.248;2023-08-21T04:02:08;2.50;;;1.80;;
2934;SDS011;2462;51.456;7.248;2023-08-21T04:04:34;2.03;;;1.80;;
2934;SDS011;2462;51.456;7.248;2023-08-21T04:07:00;2.70;;;1.83;;
2934;SDS011;2462;51.456;7.248;2023-08-21T04:09:26;2.13;;;1.93;;
2934;SDS011;2462;51.456;7.248;2023-08-21T04:11:52;2.10;;;1.90;;
2934;SDS011;2462;51.456;7.248;2023-08-21T04:14:18;2.10;;;1.90;;
2934;SDS011;2462;51.456;7.248;2023-08-21T04:16:44;1.80;;;1.63;;
2934;SDS011;2462;51.456;7.248;2023-08-21T04:19:10;1.70;;;1.60;;
2934;SDS011;2462;51.456;7.248;2023-08-21T04:21:36;1.47;;;1.37;;
2934;SDS011;2462;51.456;7.248;2023-08-21T04:24:02;3.40;;;1.90;;
2934;SDS011;2462;51.456;7.248;2023-08-21T04:26:28;2.03;;;1.60;;
2934;SDS011;2462;51.456;7.248;2023-08-21T04:28:54;1.53;;;1.43;;
2934;SDS011;2462;51.456;7.248;2023-08-21T04:31:20;3.70;;;1.77;;
2934;SDS011;2462;51.456;7.248;2023-08-21T04:33:46;2.67;;;2.00;;
2934;SDS011;2462;51.456;7.248;2023-08-21T04:36:15;2.33;;;1.43;;
2934;SDS011;2462;51.456;7.248;2023-08-21T04:38:41;2.20;;;1.87;;
2934;SDS011;2462;51.456;7.248;2023-08-21T04:41:08;3.37;;;2.30;;
2934;SDS011;2462;51.456;7.248;2023-08-21T04:43:34;1.83;;;1.60;;
2934;SDS011;2462;51.456;7.248;2023-08-21T04:46:00;2.77;;;1.90;;
2934;SDS011;2462;51.456;7.248;2023-08-21T04:48:26;2.00;;;1.80;;
2934;SDS011;2462;51.456;7.248;2023-08-21T04:50:52;2.10;;;1.90;;
2934;SDS011;2462;51.456;7.248;2023-08-21T04:53:18;2.50;;;1.40;;
2934;SDS011;2462;51.456;7.248;2023-08-21T04:55:44;2.13;;;1.70;;
2934;SDS011;2462;51.456;7.248;2023-08-21T04:58:10;2.77;;;1.70;;
2934;SDS011;2462;51.456;7.248;2023-08-21T05:00:36;2.00;;;1.43;;
2934;SDS011;2462;51.456;7.248;2023-08-21T05:03:03;1.53;;;1.30;;
2934;SDS011;2462;51.456;7.248;2023-08-21T05:05:29;2.70;;;1.50;;
2934;SDS011;2462;51.456;7.248;2023-08-21T05:07:55;4.00;;;1.77;;
2934;SDS011;2462;51.456;7.248;2023-08-21T05:10:21;1.90;;;1.70;;
2934;SDS011;2462;51.456;7.248;2023-08-21T05:12:47;1.63;;;1.50;;
2934;SDS011;2462;51.456;7.248;2023-08-21T05:15:13;2.03;;;1.70;;
2934;SDS011;2462;51.456;7.248;2023-08-21T05:17:39;1.97;;;1.60;;
2934;SDS011;2462;51.456;7.248;2023-08-21T05:20:05;3.80;;;2.07;;
2934;SDS011;2462;51.456;7.248;2023-08-21T05:22:31;3.17;;;1.83;;
2934;SDS011;2462;51.456;7.248;2023-08-21T05:24:57;3.00;;;1.60;;
2934;SDS011;2462;51.456;7.248;2023-08-21T05:27:23;2.67;;;2.33;;
2934;SDS011;2462;51.456;7.248;2023-08-21T05:29:49;3.90;;;1.50;;
2934;SDS011;2462;51.456;7.248;2023-08-21T05:32:16;3.33;;;1.83;;
2934;SDS011;2462;51.456;7.248;2023-08-21T05:34:42;2.40;;;1.40;;
2934;SDS011;2462;51.456;7.248;2023-08-21T05:37:08;2.13;;;1.60;;
2934;SDS011;2462;51.456;7.248;2023-08-21T05:39:34;1.50;;;1.40;;
2934;SDS011;2462;51.456;7.248;2023-08-21T05:42:00;1.80;;;1.57;;
2934;SDS011;2462;51.456;7.248;2023-08-21T05:44:26;4.10;;;1.47;;
2934;SDS011;2462;51.456;7.248;2023-08-21T05:46:53;1.90;;;1.70;;
2934;SDS011;2462;51.456;7.248;2023-08-21T05:49:19;1.63;;;1.53;;
2934;SDS011;2462;51.456;7.248;2023-08-21T05:51:45;3.17;;;1.77;;
2934;SDS011;2462;51.456;7.248;2023-08-21T05:54:11;1.90;;;1.50;;
2934;SDS011;2462;51.456;7.248;2023-08-21T05:56:37;2.67;;;1.70;;
2934;SDS011;2462;51.456;7.248;2023-08-21T05:59:03;2.50;;;1.70;;
2934;SDS011;2462;51.456;7.248;2023-08-21T06:01:29;2.00;;;1.67;;
2934;SDS011;2462;51.456;7.248;2023-08-21T06:03:55;2.10;;;1.50;;
2934;SDS011;2462;51.456;7.248;2023-08-21T06:06:21;1.77;;;1.43;;
2934;SDS011;2462;51.456;7.248;2023-08-21T06:08:47;7.20;;;2.97;;
2934;SDS011;2462;51.456;7.248;2023-08-21T06:11:13;7.80;;;3.40;;
2934;SDS011;2462;51.456;7.248;2023-08-21T06:13:40;7.67;;;3.20;;
2934;SDS011;2462;51.456;7.248;2023-08-21T06:16:06;6.60;;;3.40;;
2934;SDS011;2462;51.456;7.248;2023-08-21T06:18:32;6.57;;;3.85;;
2934;SDS011;2462;51.456;7.248;2023-08-21T06:20:58;6.20;;;3.60;;
2934;SDS011;2462;51.456;7.248;2023-08-21T06:23:24;5.13;;;3.30;;
2934;SDS011;2462;51.456;7.248;2023-08-21T06:25:50;5.73;;;2.77;;
2934;SDS011;2462;51.456;7.248;2023-08-21T06:28:16;3.70;;;3.10;;
2934;SDS011;2462;51.456;7.248;2023-08-21T06:30:42;6.97;;;3.67;;
2934;SDS011;2462;51.456;7.248;2023-08-21T06:33:08;7.00;;;2.83;;
2934;SDS011;2462;51.456;7.248;2023-08-21T06:35:37;5.20;;;3.57;;
2934;SDS011;2462;51.456;7.248;2023-08-21T06:38:03;4.73;;;2.97;;
2934;SDS011;2462;51.456;7.248;2023-08-21T06:40:29;3.80;;;2.97;;
2934;SDS011;2462;51.456;7.248;2023-08-21T06:42:55;4.93;;;2.80;;
2934;SDS011;2462;51.456;7.248;2023-08-21T06:45:21;5.10;;;3.07;;
2934;SDS011;2462;51.456;7.248;2023-08-21T06:47:47;7.03;;;3.30;;
2934;SDS011;2462;51.456;7.248;2023-08-21T06:50:15;4.27;;;2.90;;
2934;SDS011;2462;51.456;7.248;2023-08-21T06:52:41;3.90;;;2.50;;
2934;SDS011;2462;51.456;7.248;2023-08-21T06:55:08;6.20;;;2.00;;
2934;SDS011;2462;51.456;7.248;2023-08-21T06:57:34;5.13;;;3.57;;
2934;SDS011;2462;51.456;7.248;2023-08-21T07:00:02;5.10;;;2.27;;
2934;SDS011;2462;51.456;7.248;2023-08-21T07:02:28;7.40;;;2.93;;
2934;SDS011;2462;51.456;7.248;2023-08-21T07:04:54;7.10;;;2.90;;
2934;SDS011;2462;51.456;7.248;2023-08-21T07:07:20;8.83;;;2.40;;
2934;SDS011;2462;51.456;7.248;2023-08-21T07:09:46;4.60;;;2.77;;
2934;SDS011;2462;51.456;7.248;2023-08-21T07:12:12;6.50;;;2.53;;
2934;SDS011;2462;51.456;7.248;2023-08-21T07:14:38;4.55;;;2.42;;
2934;SDS011;2462;51.456;7.248;2023-08-21T07:17:04;9.33;;;2.60;;
2934;SDS011;2462;51.456;7.248;2023-08-21T07:19:30;8.00;;;2.43;;
2934;SDS011;2462;51.456;7.248;2023-08-21T07:21:57;5.30;;;3.00;;
2934;SDS011;2462;51.456;7.248;2023-08-21T07:24:23;3.60;;;2.10;;
2934;SDS011;2462;51.456;7.248;2023-08-21T07:26:48;4.47;;;2.40;;
2934;SDS011;2462;51.456;7.248;2023-08-21T07:29:15;5.77;;;2.60;;
2934;SDS011;2462;51.456;7.248;2023-08-21T07:31:41;6.23;;;3.00;;
2934;SDS011;2462;51.456;7.248;2023-08-21T07:34:07;9.33;;;2.50;;
2934;SDS011;2462;51.456;7.248;2023-08-21T07:36:33;5.50;;;2.80;;
2934;SDS011;2462;51.456;7.248;2023-08-21T07:38:59;8.87;;;2.97;;
2934;SDS011;2462;51.456;7.248;2023-08-21T07:41:25;9.33;;;2.80;;
2934;SDS011;2462;51.456;7.248;2023-08-21T07:43:51;5.13;;;2.37;;
2934;SDS011;2462;51.456;7.248;2023-08-21T07:46:17;4.27;;;2.53;;
2934;SDS011;2462;51.456;7.248;2023-08-21T07:48:44;5.13;;;2.10;;
2934;SDS011;2462;51.456;7.248;2023-08-21T07:51:10;5.30;;;2.90;;
2934;SDS011;2462;51.456;7.248;2023-08-21T07:53:36;8.50;;;2.50;;
2934;SDS011;2462;51.456;7.248;2023-08-21T07:56:02;3.17;;;2.23;;
2934;SDS011;2462;51.456;7.248;2023-08-21T07:58:29;7.57;;;3.00;;
2934;SDS011;2462;51.456;7.248;2023-08-21T08:00:55;5.33;;;2.43;;
2934;SDS011;2462;51.456;7.248;2023-08-21T08:03:21;10.60;;;3.60;;
2934;SDS011;2462;51.456;7.248;2023-08-21T08:05:47;5.80;;;2.67;;
2934;SDS011;2462;51.456;7.248;2023-08-21T08:08:13;5.00;;;2.50;;
2934;SDS011;2462;51.456;7.248;2023-08-21T08:10:39;7.40;;;3.40;;
2934;SDS011;2462;51.456;7.248;2023-08-21T08:13:07;5.53;;;3.00;;
2934;SDS011;2462;51.456;7.248;2023-08-21T08:15:33;8.80;;;3.93;;
2934;SDS011;2462;51.456;7.248;2023-08-21T08:18:00;9.20;;;3.47;;
2934;SDS011;2462;51.456;7.248;2023-08-21T08:20:26;3.93;;;3.00;;
2934;SDS011;2462;51.456;7.248;2023-08-21T08:22:52;10.57;;;3.60;;
2934;SDS011;2462;51.456;7.248;2023-08-21T08:25:18;8.07;;;2.80;;
2934;SDS011;2462;51.456;7.248;2023-08-21T08:27:45;7.40;;;3.60;;
2934;SDS011;2462;51.456;7.248;2023-08-21T08:30:11;6.87;;;2.97;;
2934;SDS011;2462;51.456;7.248;2023-08-21T08:32:37;7.47;;;3.03;;
2934;SDS011;2462;51.456;7.248;2023-08-21T08:35:05;10.70;;;3.30;;
2934;SDS011;2462;51.456;7.248;2023-08-21T08:37:32;7.97;;;3.17;;
2934;SDS011;2462;51.456;7.248;2023-08-21T08:39:58;9.03;;;3.77;;
2934;SDS011;2462;51.456;7.248;2023-08-21T08:42:24;4.03;;;2.70;;
2934;SDS011;2462;51.456;7.248;2023-08-21T08:44:50;6.60;;;3.03;;
2934;SDS011;2462;51.456;7.248;2023-08-21T08:47:18;7.73;;;2.97;;
2934;SDS011;2462;51.456;7.248;2023-08-21T08:49:46;7.50;;;3.30;;
2934;SDS011;2462;51.456;7.248;2023-08-21T08:52:13;6.20;;;3.07;;
2934;SDS011;2462;51.456;7.248;2023-08-21T08:54:39;5.57;;;2.87;;
2934;SDS011;2462;51.456;7.248;2023-08-21T08:57:05;5.83;;;2.67;;
2934;SDS011;2462;51.456;7.248;2023-08-21T08:59:32;5.13;;;2.33;;
2934;SDS011;2462;51.456;7.248;2023-08-21T09:01:58;6.43;;;2.60;;
2934;SDS011;2462;51.456;7.248;2023-08-21T09:04:24;9.13;;;3.40;;
2934;SDS011;2462;51.456;7.248;2023-08-21T09:06:50;7.80;;;2.50;;
2934;SDS011;2462;51.456;7.248;2023-08-21T09:09:16;8.03;;;2.93;;
2934;SDS011;2462;51.456;7.248;2023-08-21T09:11:42;4.10;;;2.50;;
2934;SDS011;2462;51.456;7.248;2023-08-21T09:14:09;6.57;;;2.80;;
2934;SDS011;2462;51.456;7.248;2023-08-21T09:16:36;4.90;;;2.30;;
2934;SDS011;2462;51.456;7.248;2023-08-21T09:19:02;5.63;;;2.63;;
2934;SDS011;2462;51.456;7.248;2023-08-21T09:21:28;4.40;;;2.50;;
2934;SDS011;2462;51.456;7.248;2023-08-21T09:23:58;7.33;;;3.27;;
2934;SDS011;2462;51.456;7.248;2023-08-21T09:26:24;4.27;;;2.20;;
2934;SDS011;2462;51.456;7.248;2023-08-21T09:28:51;5.10;;;2.00;;
2934;SDS011;2462;51.456;7.248;2023-08-21T09:31:24;5.63;;;2.33;;
2934;SDS011;2462;51.456;7.248;2023-08-21T09:33:55;9.87;;;2.60;;
2934;SDS011;2462;51.456;7.248;2023-08-21T09:36:22;6.57;;;2.97;;
2934;SDS011;2462;51.456;7.248;2023-08-21T09:38:48;7.77;;;3.03;;
2934;SDS011;2462;51.456;7.248;2023-08-21T09:41:14;4.43;;;2.60;;
2934;SDS011;2462;51.456;7.248;2023-08-21T09:43:44;5.13;;;2.03;;
2934;SDS011;2462;51.456;7.248;2023-08-21T09:46:13;10.47;;;2.60;;
2934;SDS011;2462;51.456;7.248;2023-08-21T09:48:41;4.30;;;2.87;;
2934;SDS011;2462;51.456;7.248;2023-08-21T09:51:08;4.10;;;2.70;;
2934;SDS011;2462;51.456;7.248;2023-08-21T09:53:36;4.77;;;2.47;;
2934;SDS011;2462;51.456;7.248;2023-08-21T09:56:02;6.93;;;3.27;;
2934;SDS011;2462;51.456;7.248;2023-08-21T09:58:28;3.77;;;2.70;;
2934;SDS011;2462;51.456;7.248;2023-08-21T10:00:58;6.18;;;2.63;;
2934;SDS011;2462;51.456;7.248;2023-08-21T10:03:25;3.90;;;2.53;;
2934;SDS011;2462;51.456;7.248;2023-08-21T10:05:51;4.70;;;2.80;;
2934;SDS011;2462;51.456;7.248;2023-08-21T10:08:21;10.23;;;2.60;;
2934;SDS011;2462;51.456;7.248;2023-08-21T10:10:49;8.90;;;2.63;;
2934;SDS011;2462;51.456;7.248;2023-08-21T10:13:15;9.10;;;2.97;;
2934;SDS011;2462;51.456;7.248;2023-08-21T10:15:41;7.33;;;2.90;;
2934;SDS011;2462;51.456;7.248;2023-08-21T10:18:20;8.57;;;3.00;;
2934;SDS011;2462;51.456;7.248;2023-08-21T10:20:47;5.17;;;2.77;;
2934;SDS011;2462;51.456;7.248;2023-08-21T10:26:09;7.18;;;2.92;;
2934;SDS011;2462;51.456;7.248;2023-08-21T10:33:53;3.20;;;2.80;;
2934;SDS011;2462;51.456;7.248;2023-08-21T10:39:04;5.10;;;2.43;;
2934;SDS011;2462;51.456;7.248;2023-08-21T10:41:37;8.77;;;2.73;;
2934;SDS011;2462;51.456;7.248;2023-08-21T10:44:05;3.47;;;2.50;;
2934;SDS011;2462;51.456;7.248;2023-08-21T10:46:52;6.07;;;3.53;;
2934;SDS011;2462;51.456;7.248;2023-08-21T10:49:17;6.57;;;2.50;;
2934;SDS011;2462;51.456;7.248;2023-08-21T10:51:43;4.30;;;3.43;;
2934;SDS011;2462;51.456;7.248;2023-08-21T10:54:13;8.90;;;2.83;;
2934;SDS011;2462;51.456;7.248;2023-08-21T10:56:39;6.17;;;2.57;;
2934;SDS011;2462;51.456;7.248;2023-08-21T10:59:07;6.43;;;3.30;;
2934;SDS011;2462;51.456;7.248;2023-08-21T11:01:43;7.73;;;3.83;;
2934;SDS011;2462;51.456;7.248;2023-08-21T11:04:10;4.50;;;3.40;;
2934;SDS011;2462;51.456;7.248;2023-08-21T11:06:36;4.57;;;3.07;;
2934;SDS011;2462;51.456;7.248;2023-08-21T11:09:02;10.60;;;4.00;;
2934;SDS011;2462;51.456;7.248;2023-08-21T11:11:29;8.57;;;3.53;;
2934;SDS011;2462;51.456;7.248;2023-08-21T11:13:55;5.73;;;3.27;;
2934;SDS011;2462;51.456;7.248;2023-08-21T11:16:21;10.53;;;3.53;;
2934;SDS011;2462;51.456;7.248;2023-08-21T11:18:47;7.30;;;3.60;;
2934;SDS011;2462;51.456;7.248;2023-08-21T11:21:13;5.32;;;3.70;;
2934;SDS011;2462;51.456;7.248;2023-08-21T11:23:39;5.00;;;3.58;;
2934;SDS011;2462;51.456;7.248;2023-08-21T11:26:06;6.20;;;3.13;;
2934;SDS011;2462;51.456;7.248;2023-08-21T11:28:32;6.53;;;4.73;;
2934;SDS011;2462;51.456;7.248;2023-08-21T11:30:59;9.10;;;3.50;;
2934;SDS011;2462;51.456;7.248;2023-08-21T11:33:25;7.57;;;4.23;;
2934;SDS011;2462;51.456;7.248;2023-08-21T11:35:51;8.53;;;4.37;;
2934;SDS011;2462;51.456;7.248;2023-08-21T11:38:22;7.30;;;3.93;;
2934;SDS011;2462;51.456;7.248;2023-08-21T11:43:46;7.78;;;3.53;;
2934;SDS011;2462;51.456;7.248;2023-08-21T11:46:11;7.60;;;3.97;;
2934;SDS011;2462;51.456;7.248;2023-08-21T11:48:37;9.27;;;4.30;;
2934;SDS011;2462;51.456;7.248;2023-08-21T11:51:03;5.10;;;3.10;;
2934;SDS011;2462;51.456;7.248;2023-08-21T11:53:32;8.10;;;4.17;;
2934;SDS011;2462;51.456;7.248;2023-08-21T11:55:59;3.80;;;3.30;;
2934;SDS011;2462;51.456;7.248;2023-08-21T11:58:28;6.20;;;3.67;;
2934;SDS011;2462;51.456;7.248;2023-08-21T12:00:54;5.57;;;3.37;;
2934;SDS011;2462;51.456;7.248;2023-08-21T12:03:20;9.10;;;4.33;;
2934;SDS011;2462;51.456;7.248;2023-08-21T12:05:46;7.83;;;3.37;;
2934;SDS011;2462;51.456;7.248;2023-08-21T12:08:12;4.93;;;2.75;;
2934;SDS011;2462;51.456;7.248;2023-08-21T12:10:38;5.73;;;3.00;;
2934;SDS011;2462;51.456;7.248;2023-08-21T12:13:05;6.40;;;2.93;;
2934;SDS011;2462;51.456;7.248;2023-08-21T12:15:31;4.43;;;3.27;;
2934;SDS011;2462;51.456;7.248;2023-08-21T12:17:57;4.67;;;3.37;;
2934;SDS011;2462;51.456;7.248;2023-08-21T12:20:23;5.40;;;3.27;;
2934;SDS011;2462;51.456;7.248;2023-08-21T12:22:49;4.90;;;3.17;;
2934;SDS011;2462;51.456;7.248;2023-08-21T12:25:16;8.43;;;2.60;;
2934;SDS011;2462;51.456;7.248;2023-08-21T12:27:43;5.03;;;3.03;;
2934;SDS011;2462;51.456;7.248;2023-08-21T12:30:09;4.07;;;2.87;;
2934;SDS011;2462;51.456;7.248;2023-08-21T12:32:35;8.75;;;2.90;;
2934;SDS011;2462;51.456;7.248;2023-08-21T12:35:01;5.70;;;2.70;;
2934;SDS011;2462;51.456;7.248;2023-08-21T12:37:29;6.67;;;2.80;;
2934;SDS011;2462;51.456;7.248;2023-08-21T12:39:55;8.63;;;2.57;;
2934;SDS011;2462;51.456;7.248;2023-08-21T12:42:21;6.10;;;3.30;;
2934;SDS011;2462;51.456;7.248;2023-08-21T12:44:47;7.03;;;2.73;;
2934;SDS011;2462;51.456;7.248;2023-08-21T12:47:12;5.53;;;2.73;;
2934;SDS011;2462;51.456;7.248;2023-08-21T12:49:38;5.78;;;3.00;;
2934;SDS011;2462;51.456;7.248;2023-08-21T12:52:05;5.10;;;2.77;;
2934;SDS011;2462;51.456;7.248;2023-08-21T12:54:33;8.33;;;2.80;;
2934;SDS011;2462;51.456;7.248;2023-08-21T12:56:59;7.20;;;3.10;;
2934;SDS011;2462;51.456;7.248;2023-08-21T12:59:25;7.90;;;2.70;;
2934;SDS011;2462;51.456;7.248;2023-08-21T13:01:51;6.27;;;2.70;;
2934;SDS011;2462;51.456;7.248;2023-08-21T13:04:17;3.00;;;2.50;;
2934;SDS011;2462;51.456;7.248;2023-08-21T13:06:43;4.60;;;2.57;;
2934;SDS011;2462;51.456;7.248;2023-08-21T13:09:09;2.63;;;2.27;;
2934;SDS011;2462;51.456;7.248;2023-08-21T13:11:35;5.90;;;2.27;;
2934;SDS011;2462;51.456;7.248;2023-08-21T13:14:01;5.83;;;2.37;;
2934;SDS011;2462;51.456;7.248;2023-08-21T13:16:27;4.70;;;2.17;;
2934;SDS011;2462;51.456;7.248;2023-08-21T13:18:53;5.20;;;2.57;;
2934;SDS011;2462;51.456;7.248;2023-08-21T13:21:19;5.03;;;2.83;;
2934;SDS011;2462;51.456;7.248;2023-08-21T13:23:45;10.10;;;2.93;;
2934;SDS011;2462;51.456;7.248;2023-08-21T13:26:11;5.20;;;2.63;;
2934;SDS011;2462;51.456;7.248;2023-08-21T13:28:37;10.13;;;3.63;;
2934;SDS011;2462;51.456;7.248;2023-08-21T13:31:03;5.10;;;2.20;;
2934;SDS011;2462;51.456;7.248;2023-08-21T13:33:29;3.73;;;2.30;;
2934;SDS011;2462;51.456;7.248;2023-08-21T13:35:55;3.90;;;2.47;;
2934;SDS011;2462;51.456;7.248;2023-08-21T13:38:21;6.70;;;2.67;;
2934;SDS011;2462;51.456;7.248;2023-08-21T13:40:47;5.37;;;3.03;;
2934;SDS011;2462;51.456;7.248;2023-08-21T13:43:13;5.30;;;3.30;;
2934;SDS011;2462;51.456;7.248;2023-08-21T13:45:39;4.83;;;2.83;;
2934;SDS011;2462;51.456;7.248;2023-08-21T13:48:05;5.87;;;2.53;;
2934;SDS011;2462;51.456;7.248;2023-08-21T13:50:31;6.03;;;3.20;;
2934;SDS011;2462;51.456;7.248;2023-08-21T13:52:57;7.63;;;3.03;;
2934;SDS011;2462;51.456;7.248;2023-08-21T13:55:23;3.73;;;2.60;;
2934;SDS011;2462;51.456;7.248;2023-08-21T13:57:49;3.77;;;2.10;;
2934;SDS011;2462;51.456;7.248;2023-08-21T14:00:15;4.60;;;2.77;;
2934;SDS011;2462;51.456;7.248;2023-08-21T14:02:42;5.17;;;2.93;;
2934;SDS011;2462;51.456;7.248;2023-08-21T14:05:08;5.10;;;2.50;;
2934;SDS011;2462;51.456;7.248;2023-08-21T14:07:35;6.50;;;2.90;;
2934;SDS011;2462;51.456;7.248;2023-08-21T14:10:01;5.87;;;2.90;;
2934;SDS011;2462;51.456;7.248;2023-08-21T14:12:28;3.83;;;2.13;;
2934;SDS011;2462;51.456;7.248;2023-08-21T14:14:55;3.50;;;2.80;;
2934;SDS011;2462;51.456;7.248;2023-08-21T14:17:21;4.90;;;2.70;;
2934;SDS011;2462;51.456;7.248;2023-08-21T14:19:46;8.43;;;2.80;;
2934;SDS011;2462;51.456;7.248;2023-08-21T14:22:12;7.33;;;3.00;;
2934;SDS011;2462;51.456;7.248;2023-08-21T14:24:38;6.33;;;3.27;;
2934;SDS011;2462;51.456;7.248;2023-08-21T14:27:04;6.72;;;2.83;;
2934;SDS011;2462;51.456;7.248;2023-08-21T14:29:30;6.23;;;2.60;;
2934;SDS011;2462;51.456;7.248;2023-08-21T14:31:57;5.87;;;2.60;;
2934;SDS011;2462;51.456;7.248;2023-08-21T14:34:24;3.67;;;2.30;;
2934;SDS011;2462;51.456;7.248;2023-08-21T14:36:51;4.03;;;2.23;;
2934;SDS011;2462;51.456;7.248;2023-08-21T14:39:19;6.43;;;3.77;;
2934;SDS011;2462;51.456;7.248;2023-08-21T14:41:45;4.10;;;2.20;;
2934;SDS011;2462;51.456;7.248;2023-08-21T14:44:11;5.50;;;2.43;;
2934;SDS011;2462;51.456;7.248;2023-08-21T14:46:37;4.97;;;2.07;;
2934;SDS011;2462;51.456;7.248;2023-08-21T14:49:03;6.65;;;2.60;;
2934;SDS011;2462;51.456;7.248;2023-08-21T14:51:29;2.70;;;2.07;;
2934;SDS011;2462;51.456;7.248;2023-08-21T14:53:55;3.83;;;2.20;;
2934;SDS011;2462;51.456;7.248;2023-08-21T14:56:21;6.43;;;2.37;;
2934;SDS011;2462;51.456;7.248;2023-08-21T14:58:47;2.70;;;2.03;;
2934;SDS011;2462;51.456;7.248;2023-08-21T15:01:13;7.73;;;1.80;;
2934;SDS011;2462;51.456;7.248;2023-08-21T15:03:39;5.80;;;2.00;;
2934;SDS011;2462;51.456;7.248;2023-08-21T15:06:05;4.97;;;2.80;;
2934;SDS011;2462;51.456;7.248;2023-08-21T15:08:32;4.37;;;2.13;;
2934;SDS011;2462;51.456;7.248;2023-08-21T15:10:58;3.90;;;2.57;;
2934;SDS011;2462;51.456;7.248;2023-08-21T15:13:24;13.33;;;2.80;;
2934;SDS011;2462;51.456;7.248;2023-08-21T15:15:49;19.20;;;3.93;;
2934;SDS011;2462;51.456;7.248;2023-08-21T15:18:15;3.17;;;2.17;;
2934;SDS011;2462;51.456;7.248;2023-08-21T15:20:41;6.00;;;2.17;;
2934;SDS011;2462;51.456;7.248;2023-08-21T15:23:07;2.95;;;1.70;;
2934;SDS011;2462;51.456;7.248;2023-08-21T15:25:33;4.63;;;1.80;;
2934;SDS011;2462;51.456;7.248;2023-08-21T15:27:59;6.17;;;2.00;;
2934;SDS011;2462;51.456;7.248;2023-08-21T15:30:25;17.33;;;15.53;;